13:22
Airports
History
Links
Donate
Help keep this website running!
PayPal
Bitcoin
This page is community maintained. The information is intended for PC simulator navigation or reference.
Always use approved charts for navigation.
EP2
Calgary Bow Crow
Calgary Bow Crow (EP2)
Calgary, Alberta, Canada
(U)
Lat/Lng:51° 6' 6.01" N / 114° 12' 3.12" W
51.101669 / -114.200867
Elevation:3540'ft / 1079mMSL
ID / ICAO:EP2
Runways:1
Longest:36-18
Asphalt 32m / 106ft
Nearby Weather13:00 GMT 2018-01-20
Nearby weather at CYYC, CALGARY INTL located 7.9 nautical miles from EP2
Altimeter: 29.66
Visibility: 15.0 statute miles
Wind: 0 knots (from 000°)
Temp: -1°c / 30°f
Humidity: 42.9%

METAR: CYYC 201300Z 00000KT 15SM FEW200 M01/M12 A2966 RMK CI2 SLP089

(Powered by phpweather)
Nearby VORs <50NM
Nearby NDBs
Runway 36 / 18
Dimensions:32.2 x 30.5m 106' x 100'ft
Surface:Asphalt
Runway 36 [A]Runway 18 [B]
Heading:000°TH 180°TH
Lat:
Lng:
51° 6' 5.51"N
114° 12' 3.12"W
51° 6' 6.5"N
114° 12' 3.12"W
User Notes and Comments
51° 6' 6.01" N / 114° 12' 3.12" W
Distance To
Airport ID:
Nearby Airports
(C) Calgary Springbank 7.4 NM
CYBW W 271°
(C) CALGARY INTL 7.9 NM
CYYC ( WX ) E 83°
(U) AIRDRIE 16.1 NM
CEF4 NE 45°
4 De Winton/Highwood 24.9 NM
ED6 SE 146°
(U) DE WINTON SOUTH CALGARY 25.2 NM
CEH4 SE 139°
4 Strathmore (Duke) 25.3 NM
FZ6 ESE 103°
4 Cheadle 25.4 NM
FQ4 E 97°
VFR Chart
Flight Planning at SkyVector.com